Time;durP1;ratioP1;P1;durP2;ratioP2;P2;SDS_P1;SDS_P2;PMS_P1;PMS_P2;Temp;Humidity;BMP_temperature;BMP_pressure;BME280_temperature;BME280_humidity;BME280_pressure;Samples;Min_cycle;Max_cycle;Signal;HPM_P1;HPM_P2
2021/08/19 00:00:00;;;;;;;6.90;3.63;;;24.50;61.50;;;;;;5055815;28;20044;-50
2021/08/19 00:02:27;;;;;;;4.93;3.05;;;24.50;61.80;;;;;;5055544;28;20052;-53
2021/08/19 00:04:53;;;;;;;5.03;2.70;;;24.50;61.60;;;;;;5055875;28;20037;-50
2021/08/19 00:07:19;;;;;;;5.60;2.80;;;24.50;61.70;;;;;;5055038;28;20092;-48
2021/08/19 00:09:46;;;;;;;9.20;3.30;;;24.50;61.70;;;;;;5055095;28;20384;-50
2021/08/19 00:12:12;;;;;;;7.35;2.63;;;24.50;61.70;;;;;;5055558;28;20362;-49
2021/08/19 00:14:39;;;;;;;4.80;2.72;;;24.50;62.60;;;;;;5055367;28;20075;-52
2021/08/19 00:17:07;;;;;;;5.82;2.95;;;24.40;61.70;;;;;;5055244;28;20049;-49
2021/08/19 00:19:35;;;;;;;10.95;3.05;;;24.40;61.80;;;;;;5055293;28;20062;-50
2021/08/19 00:22:02;;;;;;;6.53;2.90;;;24.40;61.80;;;;;;5055058;28;20037;-52
2021/08/19 00:24:29;;;;;;;7.55;3.33;;;24.40;61.90;;;;;;5055012;28;20396;-53
2021/08/19 00:27:03;;;;;;;5.68;2.90;;;24.40;61.90;;;;;;5054981;28;20048;-51
2021/08/19 00:29:30;;;;;;;5.45;3.00;;;24.40;61.90;;;;;;5053460;28;20045;-53
2021/08/19 00:31:56;;;;;;;4.75;2.92;;;24.40;61.80;;;;;;5055229;28;20032;-52
2021/08/19 00:34:23;;;;;;;5.88;3.28;;;24.40;61.80;;;;;;5055116;28;20052;-54
2021/08/19 00:36:50;;;;;;;5.55;3.17;;;24.40;61.80;;;;;;5054708;28;20041;-54
2021/08/19 00:39:18;;;;;;;5.70;3.30;;;24.40;61.90;;;;;;5055246;28;20060;-50
2021/08/19 00:41:44;;;;;;;4.97;2.78;;;24.40;61.90;;;;;;5054960;28;20032;-52
2021/08/19 00:44:11;;;;;;;8.65;2.78;;;24.40;61.90;;;;;;5054929;28;20056;-48
2021/08/19 00:46:38;;;;;;;5.75;3.10;;;24.30;62.00;;;;;;5054749;28;20049;-49
2021/08/19 00:49:11;;;;;;;7.97;3.15;;;24.30;62.10;;;;;;5054316;28;20029;-50
2021/08/19 00:51:42;;;;;;;4.97;2.65;;;24.30;62.30;;;;;;5055440;28;20040;-47
2021/08/19 00:54:16;;;;;;;5.75;2.58;;;24.30;62.30;;;;;;5054983;28;20504;-48
2021/08/19 00:56:43;;;;;;;8.88;3.15;;;24.20;62.20;;;;;;5054297;28;20052;-48
2021/08/19 00:59:19;;;;;;;5.40;2.60;;;24.20;62.30;;;;;;5054061;28;20055;-51
2021/08/19 01:01:45;;;;;;;4.38;2.65;;;24.20;62.20;;;;;;5054156;28;20052;-50
2021/08/19 01:04:12;;;;;;;7.28;2.67;;;24.20;62.10;;;;;;5054293;28;20053;-51
2021/08/19 01:06:38;;;;;;;6.47;3.25;;;24.30;62.20;;;;;;5055195;28;20044;-53
2021/08/19 01:09:06;;;;;;;6.35;2.92;;;24.20;62.30;;;;;;5053855;28;20049;-53
2021/08/19 01:11:38;;;;;;;6.35;3.33;;;24.20;62.20;;;;;;5054420;28;20033;-54
2021/08/19 01:14:05;;;;;;;5.97;2.67;;;24.20;62.40;;;;;;5054141;28;20120;-52
2021/08/19 01:16:34;;;;;;;7.27;3.33;;;24.20;62.30;;;;;;5054072;28;20048;-54
2021/08/19 01:19:01;;;;;;;4.82;2.97;;;24.20;62.30;;;;;;5053917;28;20056;-59
2021/08/19 01:21:28;;;;;;;5.20;3.03;;;24.20;62.30;;;;;;5054533;28;20036;-53
2021/08/19 01:23:54;;;;;;;7.00;3.00;;;24.20;62.80;;;;;;5054172;28;20377;-50
2021/08/19 01:26:21;;;;;;;5.53;2.63;;;24.20;62.10;;;;;;5054177;28;20052;-52
2021/08/19 01:28:49;;;;;;;6.05;2.75;;;24.20;62.20;;;;;;5053467;28;20045;-50
2021/08/19 01:31:21;;;;;;;6.68;3.22;;;24.20;62.00;;;;;;5054053;28;20052;-51
2021/08/19 01:33:48;;;;;;;8.20;3.13;;;24.20;62.00;;;;;;5053764;28;20040;-54
2021/08/19 01:36:15;;;;;;;4.28;2.55;;;24.20;62.00;;;;;;5053542;28;20041;-54
2021/08/19 01:38:43;;;;;;;7.72;3.03;;;24.20;62.00;;;;;;5053240;28;20049;-47
2021/08/19 01:41:10;;;;;;;9.25;2.90;;;24.20;62.00;;;;;;5053845;28;20128;-50
2021/08/19 01:43:39;;;;;;;8.55;2.97;;;24.20;61.90;;;;;;5053657;28;20346;-51
2021/08/19 01:46:07;;;;;;;5.43;2.05;;;24.20;61.80;;;;;;5053460;28;20044;-51
2021/08/19 01:48:40;;;;;;;6.43;2.90;;;24.20;61.80;;;;;;5053650;28;20389;-53
2021/08/19 01:51:07;;;;;;;3.92;2.63;;;24.20;61.80;;;;;;5054336;28;20040;-50
2021/08/19 01:53:34;;;;;;;7.25;3.40;;;24.20;61.80;;;;;;5054043;28;20405;-52
2021/08/19 01:56:00;;;;;;;7.40;2.72;;;24.20;61.70;;;;;;5053337;28;20033;-49
2021/08/19 01:58:27;;;;;;;5.05;2.75;;;24.20;61.60;;;;;;5053314;28;20049;-49
2021/08/19 02:00:54;;;;;;;4.70;2.72;;;24.20;61.60;;;;;;5052399;28;20040;-50
2021/08/19 02:03:20;;;;;;;5.63;2.65;;;24.20;61.60;;;;;;5053611;28;20052;-48
2021/08/19 02:05:48;;;;;;;4.25;2.70;;;24.20;61.60;;;;;;5052740;28;20370;-48
2021/08/19 02:08:16;;;;;;;5.70;2.55;;;24.20;61.70;;;;;;5052851;28;20044;-53
2021/08/19 02:10:44;;;;;;;5.25;2.42;;;24.20;61.90;;;;;;5052525;28;20041;-51
2021/08/19 02:13:14;;;;;;;6.07;2.63;;;24.20;61.70;;;;;;5053468;28;20389;-52
2021/08/19 02:15:41;;;;;;;9.18;2.90;;;24.20;62.00;;;;;;5053104;28;20044;-54
2021/08/19 02:18:08;;;;;;;4.25;2.45;;;24.20;62.00;;;;;;5052832;28;20401;-50
2021/08/19 02:20:35;;;;;;;5.15;2.78;;;24.20;62.10;;;;;;5052901;28;20045;-51
2021/08/19 02:23:03;;;;;;;5.70;3.22;;;24.10;63.00;;;;;;5053007;28;20048;-54
2021/08/19 02:25:30;;;;;;;6.95;4.20;;;24.10;62.30;;;;;;5052996;28;20045;-53
2021/08/19 02:27:57;;;;;;;4.95;2.63;;;24.10;62.30;;;;;;5053135;28;20045;-52
2021/08/19 02:30:24;;;;;;;8.38;3.40;;;24.10;62.30;;;;;;5052954;28;20036;-52
2021/08/19 02:32:55;;;;;;;7.68;2.92;;;24.10;62.30;;;;;;5052947;28;20036;-49
2021/08/19 02:35:29;;;;;;;4.95;2.88;;;24.10;62.30;;;;;;5052838;28;20056;-49
2021/08/19 02:37:59;;;;;;;4.95;2.75;;;24.10;62.30;;;;;;5052399;28;20040;-50
2021/08/19 02:40:26;;;;;;;;;;;24.10;62.30;;;;;;5053190;28;20044;-52
2021/08/19 02:42:53;;;;;;;5.32;2.92;;;24.10;62.60;;;;;;5052720;28;19935;-51
2021/08/19 02:45:22;;;;;;;4.05;2.47;;;24.10;62.70;;;;;;5052796;28;20386;-50
2021/08/19 02:47:48;;;;;;;6.90;2.80;;;24.10;62.90;;;;;;5052536;28;20052;-51
2021/08/19 02:50:17;;;;;;;5.47;2.78;;;24.10;62.90;;;;;;5052455;28;20045;-50
2021/08/19 02:52:44;;;;;;;9.23;3.95;;;24.10;63.00;;;;;;5052214;28;20064;-52
2021/08/19 02:55:11;;;;;;;5.00;2.88;;;24.10;63.10;;;;;;5052462;28;20515;-50
2021/08/19 02:57:37;;;;;;;7.78;2.78;;;24.00;63.10;;;;;;5052219;28;20041;-51
2021/08/19 03:00:05;;;;;;;7.28;3.47;;;24.00;63.10;;;;;;5052482;28;20108;-50
2021/08/19 03:02:32;;;;;;;5.63;3.10;;;24.00;63.20;;;;;;5052351;28;20045;-51
2021/08/19 03:04:59;;;;;;;4.15;2.65;;;24.00;63.30;;;;;;5052231;28;20056;-51
2021/08/19 03:07:25;;;;;;;6.38;2.75;;;24.00;63.30;;;;;;5052021;28;20048;-47
2021/08/19 03:09:51;;;;;;;8.23;2.70;;;24.00;63.40;;;;;;5052293;28;20458;-50
2021/08/19 03:12:18;;;;;;;8.27;3.30;;;24.00;63.40;;;;;;5051542;28;20044;-50
2021/08/19 03:14:45;;;;;;;5.63;3.00;;;24.00;63.50;;;;;;5052726;28;20369;-51
2021/08/19 03:17:11;;;;;;;4.32;2.67;;;24.00;63.50;;;;;;5052065;28;20044;-49
2021/08/19 03:19:39;;;;;;;11.55;2.88;;;24.00;63.70;;;;;;5052090;28;20041;-50
2021/08/19 03:22:07;;;;;;;5.60;2.60;;;23.90;63.50;;;;;;5052256;28;20045;-49
2021/08/19 03:24:35;;;;;;;5.57;2.70;;;24.00;63.60;;;;;;5052230;28;20033;-50
2021/08/19 03:27:03;;;;;;;8.20;3.05;;;24.00;63.70;;;;;;5052319;28;20381;-51
2021/08/19 03:29:32;;;;;;;7.45;3.22;;;24.00;63.80;;;;;;5052024;28;20052;-53
2021/08/19 03:31:59;;;;;;;6.70;2.97;;;24.00;63.80;;;;;;5052046;28;20033;-51
2021/08/19 03:34:25;;;;;;;5.88;3.22;;;24.00;63.80;;;;;;5052659;28;20041;-50
2021/08/19 03:36:53;;;;;;;4.22;2.53;;;23.90;64.00;;;;;;5052132;28;20037;-51
2021/08/19 03:39:19;;;;;;;7.35;2.78;;;23.90;64.20;;;;;;5051769;28;20053;-50
2021/08/19 03:41:45;;;;;;;4.53;2.88;;;23.90;64.30;;;;;;5051996;28;20063;-55
2021/08/19 03:44:15;;;;;;;5.25;3.05;;;23.90;64.60;;;;;;5051432;28;20049;-51
2021/08/19 03:46:43;;;;;;;7.93;3.65;;;23.90;64.70;;;;;;5051405;28;20040;-52
2021/08/19 03:49:10;;;;;;;5.45;2.90;;;23.90;64.70;;;;;;5052092;28;20041;-52
2021/08/19 03:51:36;;;;;;;5.40;2.85;;;23.90;64.80;;;;;;5051586;28;20048;-49
2021/08/19 03:54:03;;;;;;;9.07;3.92;;;23.90;65.00;;;;;;5051843;28;20033;-51
2021/08/19 03:56:31;;;;;;;7.22;3.38;;;23.90;65.10;;;;;;5051646;28;20041;-55
2021/08/19 03:58:57;;;;;;;7.28;3.65;;;23.90;65.20;;;;;;5051307;28;20489;-57
2021/08/19 04:01:24;;;;;;;7.82;3.00;;;23.90;65.30;;;;;;5051767;28;20052;-54
2021/08/19 04:03:51;;;;;;;6.15;3.30;;;23.80;65.30;;;;;;5051825;28;20048;-53
2021/08/19 04:06:18;;;;;;;5.47;3.45;;;23.80;65.50;;;;;;5051671;28;20052;-54
2021/08/19 04:08:45;;;;;;;5.15;3.03;;;23.80;65.70;;;;;;5051603;28;20377;-49
2021/08/19 04:11:11;;;;;;;5.93;3.30;;;23.80;65.80;;;;;;5051584;28;20393;-54
2021/08/19 04:13:41;;;;;;;6.28;3.00;;;23.80;65.70;;;;;;5051683;28;20049;-49
2021/08/19 04:16:08;;;;;;;8.77;3.88;;;23.80;65.80;;;;;;5051298;28;20508;-54
2021/08/19 04:18:35;;;;;;;6.47;3.75;;;23.70;65.90;;;;;;5051488;28;20049;-51
2021/08/19 04:21:02;;;;;;;7.78;3.30;;;23.70;66.00;;;;;;5051658;28;20049;-48
2021/08/19 04:23:29;;;;;;;5.47;3.00;;;23.70;65.90;;;;;;5052664;28;20025;-50
2021/08/19 04:25:56;;;;;;;6.07;3.70;;;23.70;65.90;;;;;;5055197;28;20037;-53
2021/08/19 04:28:22;;;;;;;10.82;3.50;;;23.70;65.80;;;;;;5055172;28;20389;-53
2021/08/19 04:30:49;;;;;;;7.22;3.47;;;23.70;65.90;;;;;;5055716;28;20065;-52
2021/08/19 04:33:15;;;;;;;9.68;3.30;;;23.70;66.10;;;;;;5055869;28;20041;-51
2021/08/19 04:35:42;;;;;;;5.97;3.50;;;23.60;66.10;;;;;;5054897;28;20112;-51
2021/08/19 04:38:09;;;;;;;5.70;3.38;;;23.60;66.30;;;;;;5055118;28;20473;-50
2021/08/19 04:40:35;;;;;;;6.57;3.35;;;23.60;66.40;;;;;;5054408;28;20048;-53
2021/08/19 04:43:02;;;;;;;7.32;3.53;;;23.60;66.50;;;;;;5054832;28;20044;-51
2021/08/19 04:45:29;;;;;;;5.85;3.70;;;23.60;66.30;;;;;;5055136;28;20029;-49
2021/08/19 04:47:55;;;;;;;5.57;3.25;;;23.60;66.30;;;;;;5055052;28;20025;-51
2021/08/19 04:50:22;;;;;;;8.40;3.30;;;23.60;65.70;;;;;;5055291;28;20405;-48
2021/08/19 04:52:48;;;;;;;6.88;3.80;;;23.50;65.50;;;;;;5054542;28;20048;-50
2021/08/19 04:55:15;;;;;;;5.53;3.38;;;23.50;65.30;;;;;;5054737;28;20025;-54
2021/08/19 04:57:41;;;;;;;8.20;4.10;;;23.50;65.30;;;;;;5054767;28;20461;-48
2021/08/19 05:00:09;;;;;;;5.32;3.30;;;23.50;65.40;;;;;;5054705;28;20045;-50
2021/08/19 05:02:35;;;;;;;9.02;3.10;;;23.50;65.30;;;;;;5054399;28;20049;-48
2021/08/19 05:05:02;;;;;;;5.05;2.92;;;23.50;65.10;;;;;;5054596;28;20045;-48
2021/08/19 05:07:30;;;;;;;7.18;3.20;;;23.50;65.00;;;;;;5053813;28;20048;-51
2021/08/19 05:09:58;;;;;;;9.13;3.30;;;23.50;65.00;;;;;;5054203;28;20040;-53
2021/08/19 05:12:24;;;;;;;10.23;4.88;;;23.50;64.90;;;;;;5054418;28;20040;-53
2021/08/19 05:14:51;;;;;;;16.48;4.07;;;23.50;64.60;;;;;;5054419;28;20392;-55
2021/08/19 05:17:17;;;;;;;7.18;3.75;;;23.50;64.50;;;;;;5054167;28;20523;-56
2021/08/19 05:19:44;;;;;;;6.97;3.22;;;23.50;64.10;;;;;;5054475;28;20032;-51
2021/08/19 05:22:10;;;;;;;7.97;3.05;;;23.50;63.80;;;;;;5054096;28;20075;-52
2021/08/19 05:24:37;;;;;;;6.75;2.85;;;23.50;63.60;;;;;;5054104;28;20195;-51
2021/08/19 05:27:03;;;;;;;6.30;3.92;;;23.50;63.50;;;;;;5054114;28;20393;-50
2021/08/19 05:29:30;;;;;;;5.78;3.53;;;23.50;63.30;;;;;;5054782;28;20049;-50
2021/08/19 05:31:56;;;;;;;5.82;2.95;;;23.50;63.30;;;;;;5053755;28;20421;-52
2021/08/19 05:34:23;;;;;;;6.07;3.30;;;23.50;63.60;;;;;;5053605;28;20032;-50
2021/08/19 05:36:49;;;;;;;8.30;3.20;;;23.50;63.40;;;;;;5054120;28;20033;-49
2021/08/19 05:39:15;;;;;;;5.53;2.90;;;23.50;63.30;;;;;;5053495;28;20040;-51
2021/08/19 05:41:42;;;;;;;6.97;3.42;;;23.50;62.90;;;;;;5054134;28;20477;-54
2021/08/19 05:44:08;;;;;;;4.60;2.72;;;23.60;62.50;;;;;;5053599;28;20056;-47
2021/08/19 05:46:38;;;;;;;5.95;2.80;;;23.60;62.10;;;;;;5053871;28;20048;-47
2021/08/19 05:49:05;;;;;;;3.63;2.30;;;23.60;61.90;;;;;;5053510;28;20477;-52
2021/08/19 05:51:31;;;;;;;5.95;2.80;;;23.60;61.60;;;;;;5053713;28;20036;-49
2021/08/19 05:53:58;;;;;;;5.18;3.05;;;23.60;61.20;;;;;;5053993;28;20044;-50
2021/08/19 05:56:24;;;;;;;3.67;2.17;;;23.50;61.20;;;;;;5053767;28;20049;-50
2021/08/19 05:58:50;;;;;;;9.52;2.70;;;23.60;61.60;;;;;;5053121;28;20064;-52
2021/08/19 06:01:17;;;;;;;5.53;2.97;;;23.60;61.50;;;;;;5053850;28;20033;-48
2021/08/19 06:03:43;;;;;;;7.60;3.00;;;23.60;61.40;;;;;;5053251;28;20048;-48
2021/08/19 06:06:15;;;;;;;4.78;2.95;;;23.60;60.90;;;;;;5053296;28;20119;-48
2021/08/19 06:08:42;;;;;;;4.75;2.58;;;23.60;61.20;;;;;;5053351;28;20369;-48
2021/08/19 06:11:09;;;;;;;5.50;2.38;;;23.60;60.90;;;;;;5053172;28;20048;-47
2021/08/19 06:13:35;;;;;;;5.30;2.60;;;23.60;60.90;;;;;;5052791;28;20385;-50
2021/08/19 06:16:02;;;;;;;5.40;2.65;;;23.60;60.80;;;;;;5052803;28;20056;-49
2021/08/19 06:18:29;;;;;;;7.40;2.80;;;23.60;60.40;;;;;;5052932;28;20049;-48
2021/08/19 06:20:57;;;;;;;4.75;2.67;;;23.60;60.20;;;;;;5052720;28;20071;-52
2021/08/19 06:23:23;;;;;;;5.00;2.88;;;23.60;60.40;;;;;;5053354;28;20480;-49
2021/08/19 06:25:50;;;;;;;11.95;3.13;;;23.60;60.10;;;;;;5052061;28;20049;-47
2021/08/19 06:28:23;;;;;;;6.47;3.00;;;23.60;60.30;;;;;;5052771;28;20390;-50
2021/08/19 06:30:51;;;;;;;7.95;3.47;;;23.60;60.50;;;;;;5052834;28;20056;-50
2021/08/19 06:33:18;;;;;;;5.50;2.90;;;23.60;59.90;;;;;;5052942;28;20033;-49
2021/08/19 06:35:44;;;;;;;5.72;3.53;;;23.60;59.80;;;;;;5052974;28;20044;-48
2021/08/19 06:38:10;;;;;;;7.35;3.45;;;23.60;59.60;;;;;;5052683;28;20382;-48
2021/08/19 06:40:37;;;;;;;6.65;3.08;;;23.60;59.30;;;;;;5052494;28;20481;-50
2021/08/19 06:43:03;;;;;;;5.03;3.03;;;23.60;59.00;;;;;;5053004;28;20044;-51
2021/08/19 06:45:30;;;;;;;6.65;3.13;;;23.60;58.80;;;;;;5052509;28;20025;-48
2021/08/19 06:47:56;;;;;;;8.00;3.05;;;23.60;58.80;;;;;;5050563;28;20048;-49
2021/08/19 06:50:23;;;;;;;5.38;2.90;;;23.60;58.80;;;;;;5052367;28;20037;-48
2021/08/19 06:52:49;;;;;;;9.35;3.65;;;23.70;58.90;;;;;;5052615;28;20052;-48
2021/08/19 06:55:15;;;;;;;8.75;2.78;;;23.60;58.90;;;;;;5052446;28;20041;-50
2021/08/19 06:57:42;;;;;;;6.55;2.30;;;23.60;58.40;;;;;;5052646;28;20132;-48
2021/08/19 07:00:09;;;;;;;3.95;2.30;;;23.60;58.20;;;;;;5052320;28;20049;-48
2021/08/19 07:02:37;;;;;;;5.57;2.40;;;23.70;58.20;;;;;;5052181;28;20408;-49
2021/08/19 07:05:06;;;;;;;5.22;2.33;;;23.60;58.10;;;;;;5052499;28;20041;-50
2021/08/19 07:07:33;;;;;;;4.35;2.47;;;23.60;57.70;;;;;;5052106;28;20531;-54
2021/08/19 07:10:01;;;;;;;6.85;2.58;;;23.50;57.80;;;;;;5051990;28;20053;-48
2021/08/19 07:12:28;;;;;;;5.65;2.47;;;23.50;57.90;;;;;;5052042;28;20501;-51
2021/08/19 07:14:54;;;;;;;5.25;2.92;;;23.60;57.90;;;;;;5052539;28;20504;-52
2021/08/19 07:17:21;;;;;;;6.40;2.40;;;23.70;57.80;;;;;;5051655;28;20116;-50
2021/08/19 07:19:47;;;;;;;7.63;2.28;;;23.70;57.00;;;;;;5052134;28;20057;-51
2021/08/19 07:22:14;;;;;;;9.65;3.20;;;23.70;56.90;;;;;;5051557;28;20068;-50
2021/08/19 07:24:40;;;;;;;8.52;2.22;;;23.80;56.90;;;;;;5052394;28;20029;-51
2021/08/19 07:27:07;;;;;;;7.80;2.60;;;23.70;57.00;;;;;;5051644;28;20052;-55
2021/08/19 07:29:33;;;;;;;8.57;3.20;;;23.80;57.10;;;;;;5052826;28;20053;-54
2021/08/19 07:32:00;;;;;;;6.10;2.80;;;23.90;56.80;;;;;;5051339;28;20409;-50
2021/08/19 07:34:26;;;;;;;4.80;3.15;;;23.90;56.90;;;;;;5052083;28;20485;-50
2021/08/19 07:36:53;;;;;;;7.30;2.38;;;23.90;56.30;;;;;;5052202;28;20041;-48
2021/08/19 07:39:19;;;;;;;8.25;3.80;;;24.00;56.00;;;;;;5051785;28;20044;-51
2021/08/19 07:41:45;;;;;;;6.47;2.83;;;24.00;56.30;;;;;;5052109;28;20037;-48
2021/08/19 07:44:12;;;;;;;3.83;2.28;;;24.10;56.50;;;;;;5051850;28;20500;-49
2021/08/19 07:46:38;;;;;;;7.30;2.88;;;24.10;55.80;;;;;;5051797;28;20044;-49
2021/08/19 07:49:05;;;;;;;5.13;2.47;;;24.20;55.30;;;;;;5051824;28;20370;-49
2021/08/19 07:51:34;;;;;;;9.15;2.45;;;24.20;55.80;;;;;;5051357;28;20037;-50
2021/08/19 07:54:01;;;;;;;6.60;2.50;;;24.30;55.60;;;;;;5051588;28;20056;-49
2021/08/19 07:56:27;;;;;;;7.18;2.42;;;24.40;55.30;;;;;;5051933;28;20385;-51
2021/08/19 07:58:54;;;;;;;5.88;2.60;;;24.50;54.70;;;;;;5052563;28;20048;-49
2021/08/19 08:01:22;;;;;;;4.00;2.35;;;24.60;54.30;;;;;;5053990;28;20049;-51
2021/08/19 08:03:48;;;;;;;7.10;2.33;;;24.60;53.80;;;;;;5055542;28;20056;-54
2021/08/19 08:06:14;;;;;;;7.28;2.53;;;24.60;53.80;;;;;;5055515;28;20052;-51
2021/08/19 08:08:41;;;;;;;5.18;2.45;;;24.70;53.60;;;;;;5054856;28;20045;-50
2021/08/19 08:11:07;;;;;;;4.80;2.08;;;24.80;53.00;;;;;;5055492;28;20033;-50
2021/08/19 08:13:34;;;;;;;6.15;2.20;;;24.90;52.40;;;;;;5055221;28;20477;-50
2021/08/19 08:16:00;;;;;;;7.32;2.33;;;24.90;51.40;;;;;;5054816;28;20045;-50
2021/08/19 08:18:27;;;;;;;4.88;2.10;;;25.00;51.60;;;;;;5055242;28;20390;-49
2021/08/19 08:20:57;;;;;;;5.35;2.00;;;25.00;51.20;;;;;;5055560;28;20037;-51
2021/08/19 08:23:24;;;;;;;6.22;2.00;;;25.00;51.80;;;;;;5055239;28;20048;-49
2021/08/19 08:25:50;;;;;;;6.65;2.70;;;25.10;51.90;;;;;;5055253;28;20037;-48
2021/08/19 08:28:26;;;;;;;3.38;2.30;;;25.10;51.40;;;;;;5055157;28;20029;-48
2021/08/19 08:30:53;;;;;;;5.53;2.20;;;25.10;51.20;;;;;;5055124;28;20398;-48
2021/08/19 08:33:20;;;;;;;4.70;2.92;;;25.20;51.00;;;;;;5055079;28;20504;-51
2021/08/19 08:35:48;;;;;;;5.80;2.28;;;25.20;50.90;;;;;;5054622;28;20041;-48
2021/08/19 08:38:17;;;;;;;6.65;2.33;;;25.30;51.20;;;;;;5054898;28;20024;-52
2021/08/19 08:40:46;;;;;;;3.45;2.17;;;25.40;50.90;;;;;;5054620;28;20060;-51
2021/08/19 08:43:16;;;;;;;4.53;2.53;;;25.40;50.50;;;;;;5055048;28;20052;-51
2021/08/19 08:45:46;;;;;;;5.20;2.63;;;25.20;50.40;;;;;;5055026;28;20025;-53
2021/08/19 08:48:19;;;;;;;5.50;2.28;;;25.20;51.10;;;;;;5054878;28;20041;-50
2021/08/19 08:50:47;;;;;;;6.22;2.50;;;25.40;51.00;;;;;;5054239;28;20057;-52
2021/08/19 08:53:15;;;;;;;8.30;2.45;;;25.50;50.40;;;;;;5055355;28;20037;-50
2021/08/19 08:55:43;;;;;;;4.50;2.03;;;25.50;49.90;;;;;;5054580;28;20489;-51
2021/08/19 08:58:11;;;;;;;3.47;2.13;;;25.50;49.90;;;;;;5054752;28;20028;-50
2021/08/19 09:00:43;;;;;;;7.60;2.47;;;25.60;50.30;;;;;;5054494;28;20057;-48
2021/08/19 09:03:11;;;;;;;6.53;2.42;;;25.60;49.90;;;;;;5054657;28;20512;-53
2021/08/19 09:05:42;;;;;;;3.97;2.05;;;25.50;49.70;;;;;;5054288;28;20045;-51
2021/08/19 09:08:20;;;;;;;5.53;2.97;;;25.50;50.00;;;;;;5054517;28;20056;-49
2021/08/19 09:10:48;;;;;;;7.82;2.85;;;25.60;49.60;;;;;;5053722;28;20048;-49
2021/08/19 09:13:23;;;;;;;7.43;3.15;;;25.60;49.50;;;;;;5054315;28;20048;-50
2021/08/19 09:15:52;;;;;;;5.13;2.72;;;25.60;49.10;;;;;;5053659;28;20496;-47
2021/08/19 09:18:49;;;;;;;4.10;2.30;;;25.60;49.20;;;;;;5053575;28;20048;-50
2021/08/19 09:21:25;;;;;;;4.38;2.42;;;25.80;49.70;;;;;;5053036;28;20053;-49
2021/08/19 09:24:11;;;;;;;11.48;2.80;;;26.00;48.60;;;;;;5054239;28;20052;-52
2021/08/19 09:26:37;;;;;;;4.32;2.30;;;26.00;48.00;;;;;;5053928;28;20041;-50
2021/08/19 09:29:22;;;;;;;9.13;3.05;;;26.10;48.00;;;;;;5054580;28;20036;-52
2021/08/19 09:31:50;;;;;;;4.03;2.30;;;26.20;47.80;;;;;;5054454;28;20048;-52
2021/08/19 09:34:17;;;;;;;5.22;2.50;;;26.20;48.10;;;;;;5053536;28;20048;-50
2021/08/19 09:36:44;;;;;;;4.60;2.55;;;26.30;48.20;;;;;;5053969;28;20028;-52
2021/08/19 09:39:11;;;;;;;8.70;3.58;;;26.30;47.70;;;;;;5053205;28;20610;-52
2021/08/19 09:41:54;;;;;;;6.28;2.72;;;26.30;48.10;;;;;;5053665;28;20056;-53
2021/08/19 09:44:36;;;;;;;4.57;2.88;;;26.40;48.10;;;;;;5053794;28;20041;-54
2021/08/19 09:47:05;;;;;;;7.30;2.55;;;26.50;48.70;;;;;;5053692;28;20052;-50
2021/08/19 09:49:37;;;;;;;4.80;2.33;;;26.70;48.10;;;;;;5053166;28;20045;-49
2021/08/19 09:52:05;;;;;;;6.13;2.60;;;26.60;47.50;;;;;;5053612;28;20045;-50
2021/08/19 09:54:36;;;;;;;5.60;2.30;;;26.50;46.30;;;;;;5053825;28;20465;-47
2021/08/19 09:57:05;;;;;;;7.18;2.35;;;26.50;47.20;;;;;;5053492;28;20535;-54
2021/08/19 09:59:39;;;;;;;4.93;2.58;;;26.60;47.50;;;;;;5053429;28;20056;-47
2021/08/19 10:02:07;;;;;;;6.60;2.67;;;26.60;47.90;;;;;;5053394;28;20041;-50
2021/08/19 10:04:34;;;;;;;4.32;2.40;;;26.70;48.30;;;;;;5053381;28;20505;-49
2021/08/19 10:07:02;;;;;;;10.40;3.30;;;26.70;48.00;;;;;;5053341;28;20040;-50
2021/08/19 10:09:29;;;;;;;5.75;2.90;;;26.70;48.00;;;;;;5053298;28;20048;-54
2021/08/19 10:11:58;;;;;;;10.02;2.72;;;26.70;47.90;;;;;;5052806;28;20432;-50
2021/08/19 10:14:30;;;;;;;7.05;2.47;;;26.70;47.80;;;;;;5053056;28;20477;-52
2021/08/19 10:16:57;;;;;;;7.60;2.65;;;26.70;47.20;;;;;;5052959;28;20477;-48
2021/08/19 10:19:32;;;;;;;6.03;2.90;;;26.70;47.30;;;;;;5052855;28;20041;-53
2021/08/19 10:22:11;;;;;;;6.80;2.65;;;26.80;47.40;;;;;;5052795;28;20041;-49
2021/08/19 10:24:39;;;;;;;6.57;2.40;;;26.80;47.50;;;;;;5053023;28;20037;-48
2021/08/19 10:27:14;;;;;;;4.47;2.28;;;26.80;47.70;;;;;;5052916;28;20052;-47
2021/08/19 10:29:48;;;;;;;6.97;2.50;;;26.80;47.30;;;;;;5053183;28;20041;-47
2021/08/19 10:32:24;;;;;;;7.22;3.20;;;26.90;47.00;;;;;;5052922;28;20041;-48
2021/08/19 10:34:56;;;;;;;9.38;2.45;;;26.90;47.10;;;;;;5052796;28;20064;-47
2021/08/19 10:37:45;;;;;;;6.38;2.60;;;26.80;46.10;;;;;;5052796;28;20049;-47
2021/08/19 10:40:24;;;;;;;6.85;2.88;;;26.80;45.80;;;;;;5052250;28;20044;-49
2021/08/19 10:42:53;;;;;;;5.50;2.25;;;26.80;45.70;;;;;;5052738;28;20048;-51
2021/08/19 10:45:28;;;;;;;7.90;3.50;;;26.80;46.10;;;;;;5052504;28;20052;-49
2021/08/19 10:48:00;;;;;;;5.20;2.53;;;26.80;46.70;;;;;;5052561;28;20033;-51
2021/08/19 10:50:35;;;;;;;7.43;2.90;;;26.80;46.80;;;;;;5052537;28;20061;-52
2021/08/19 10:53:21;;;;;;;6.85;2.70;;;27.00;47.00;;;;;;5052010;28;20112;-51
2021/08/19 10:55:53;;;;;;;4.43;2.63;;;26.90;46.70;;;;;;5052154;28;20041;-51
2021/08/19 10:58:33;;;;;;;6.82;2.70;;;26.90;47.40;;;;;;5052067;28;20049;-54
2021/08/19 11:01:13;;;;;;;6.13;2.92;;;27.00;47.70;;;;;;5052322;28;20048;-50
2021/08/19 11:03:45;;;;;;;9.55;3.45;;;27.10;47.50;;;;;;5051922;28;20056;-53
2021/08/19 11:06:14;;;;;;;7.28;3.13;;;27.20;47.30;;;;;;5052297;28;20052;-60
2021/08/19 11:08:43;;;;;;;7.70;3.92;;;27.20;47.80;;;;;;5051890;28;20045;-54
2021/08/19 11:11:12;;;;;;;7.05;3.10;;;27.00;48.70;;;;;;5052293;28;20044;-50
2021/08/19 11:13:39;;;;;;;10.82;3.30;;;27.00;48.70;;;;;;5051966;28;20485;-49
2021/08/19 11:16:09;;;;;;;7.40;3.30;;;27.10;48.90;;;;;;5051837;28;20547;-48
2021/08/19 11:18:36;;;;;;;7.07;3.40;;;27.10;49.00;;;;;;5052282;28;20048;-48
2021/08/19 11:21:05;;;;;;;6.22;3.60;;;27.20;49.20;;;;;;5051808;28;20051;-53
2021/08/19 11:23:40;;;;;;;7.50;3.53;;;27.20;49.20;;;;;;5052117;28;20040;-53
2021/08/19 11:26:12;;;;;;;7.82;3.88;;;27.20;49.50;;;;;;5052037;28;20049;-48
2021/08/19 11:28:45;;;;;;;6.97;3.90;;;27.30;49.20;;;;;;5051884;28;20037;-52
2021/08/19 11:31:22;;;;;;;9.20;3.88;;;27.00;49.20;;;;;;5052217;28;20044;-53
2021/08/19 11:34:04;;;;;;;7.28;4.20;;;27.00;49.60;;;;;;5055075;28;20405;-53
2021/08/19 11:36:32;;;;;;;7.35;3.03;;;27.10;49.50;;;;;;5056155;28;20052;-52
2021/08/19 11:39:02;;;;;;;9.02;3.17;;;27.20;49.30;;;;;;5055867;28;20045;-50
2021/08/19 11:41:29;;;;;;;5.68;2.92;;;27.30;49.00;;;;;;5056082;28;20033;-55
2021/08/19 11:44:00;;;;;;;6.95;3.22;;;27.40;48.20;;;;;;5056623;28;20148;-53
2021/08/19 11:46:28;;;;;;;5.93;2.70;;;27.50;47.90;;;;;;5055868;28;20048;-52
2021/08/19 11:48:56;;;;;;;5.70;2.75;;;27.50;47.60;;;;;;5055665;28;20048;-52
2021/08/19 11:51:24;;;;;;;8.75;3.00;;;27.50;47.40;;;;;;5055690;28;20350;-55
2021/08/19 11:53:55;;;;;;;6.20;2.50;;;27.60;47.10;;;;;;5055921;28;20043;-54
2021/08/19 11:56:25;;;;;;;6.00;2.28;;;27.70;46.30;;;;;;5055405;28;20048;-53
2021/08/19 11:59:00;;;;;;;6.07;2.38;;;27.60;45.70;;;;;;5055487;28;20037;-54
2021/08/19 12:01:26;;;;;;;4.60;2.05;;;27.60;45.80;;;;;;5055424;28;20053;-53
2021/08/19 12:03:53;;;;;;;5.43;2.40;;;27.40;45.80;;;;;;5056080;28;20073;-53
2021/08/19 12:06:19;;;;;;;4.80;2.20;;;27.40;46.00;;;;;;5055397;28;20044;-50
2021/08/19 12:08:52;;;;;;;3.25;1.63;;;27.40;46.30;;;;;;5055726;28;20029;-55
2021/08/19 12:11:27;;;;;;;6.70;2.45;;;27.60;46.20;;;;;;5055341;28;20037;-54
2021/08/19 12:13:54;;;;;;;5.80;2.22;;;27.70;45.90;;;;;;5055544;28;20485;-52
2021/08/19 12:16:27;;;;;;;5.20;2.40;;;27.60;45.60;;;;;;5055008;28;20120;-53
2021/08/19 12:19:24;;;;;;;7.40;2.60;;;27.60;45.70;;;;;;5055447;28;20045;-54
2021/08/19 12:21:53;;;;;;;3.95;2.08;;;27.60;45.60;;;;;;5055055;28;20054;-51
2021/08/19 12:24:35;;;;;;;4.68;1.73;;;27.50;45.20;;;;;;5055255;28;20056;-53
2021/08/19 12:27:19;;;;;;;6.40;1.80;;;27.70;45.10;;;;;;5054892;28;20398;-54
2021/08/19 12:29:52;;;;;;;9.95;2.15;;;27.80;45.20;;;;;;5055546;28;20427;-53
2021/08/19 12:32:34;;;;;;;4.05;2.20;;;27.90;44.80;;;;;;5055694;28;20049;-50
2021/08/19 12:35:06;;;;;;;12.88;3.03;;;27.90;44.60;;;;;;5055765;28;20033;-53
2021/08/19 12:37:34;;;;;;;3.42;2.03;;;27.80;44.70;;;;;;5055234;28;20379;-53
2021/08/19 12:40:14;;;;;;;8.10;2.00;;;27.80;44.60;;;;;;5054718;28;20044;-51
2021/08/19 12:42:44;;;;;;;9.13;2.35;;;27.90;44.90;;;;;;5054690;28;20052;-50
2021/08/19 12:45:16;;;;;;;5.85;2.42;;;27.70;44.90;;;;;;5055008;28;20052;-51
2021/08/19 12:48:19;;;;;;;6.65;1.98;;;27.60;44.70;;;;;;5054752;28;20512;-52
2021/08/19 12:50:45;;;;;;;8.48;3.97;;;27.60;45.10;;;;;;5054828;28;20370;-49
2021/08/19 12:53:15;;;;;;;7.72;1.98;;;27.70;45.10;;;;;;5054514;28;20052;-52